createdAt,value
2019-06-15T00:00:04.084Z,0.00
2019-06-15T00:01:04.071Z,0.00
2019-06-15T00:02:04.092Z,0.00
2019-06-15T00:03:04.046Z,0.00
2019-06-15T00:04:04.032Z,0.00
2019-06-15T00:05:04.012Z,0.00
2019-06-15T00:06:04.001Z,0.00
2019-06-15T00:07:03.984Z,0.00
2019-06-15T00:08:04.878Z,0.00
2019-06-15T00:09:03.956Z,0.00
2019-06-15T00:10:03.948Z,0.00
2019-06-15T00:11:03.925Z,0.00
2019-06-15T00:12:03.914Z,0.00
2019-06-15T00:13:03.909Z,0.00
2019-06-15T00:14:03.886Z,0.00
2019-06-15T00:15:03.880Z,0.00
2019-06-15T00:16:03.853Z,0.00
2019-06-15T00:17:03.846Z,0.00
2019-06-15T00:18:03.825Z,0.00
2019-06-15T00:19:03.821Z,0.00
2019-06-15T00:20:03.800Z,0.00
2019-06-15T00:21:03.783Z,0.00
2019-06-15T00:22:03.770Z,0.00
2019-06-15T00:23:03.749Z,0.00
2019-06-15T00:24:03.744Z,0.00
2019-06-15T00:25:03.727Z,0.00
2019-06-15T00:26:03.712Z,0.00
2019-06-15T00:27:03.695Z,0.00
2019-06-15T00:28:03.682Z,0.00
2019-06-15T00:29:03.666Z,0.00
2019-06-15T00:30:03.659Z,0.00
2019-06-15T00:31:03.640Z,0.00
2019-06-15T00:32:03.627Z,0.00
2019-06-15T00:33:03.613Z,0.00
2019-06-15T00:34:03.594Z,0.00
2019-06-15T00:35:03.578Z,0.00
2019-06-15T00:36:03.584Z,0.00
2019-06-15T00:37:04.839Z,0.00
2019-06-15T00:38:03.536Z,0.00
2019-06-15T00:39:03.518Z,0.00
2019-06-15T00:40:03.619Z,0.00
2019-06-15T00:41:03.491Z,0.00
2019-06-15T00:42:03.477Z,0.00
2019-06-15T00:43:03.462Z,0.00
2019-06-15T00:44:03.446Z,0.00
2019-06-15T00:45:03.434Z,0.00
2019-06-15T00:46:03.415Z,0.00
2019-06-15T00:47:03.577Z,0.00
2019-06-15T00:48:03.391Z,0.00
2019-06-15T00:49:03.386Z,0.00
2019-06-15T00:50:03.359Z,0.00
2019-06-15T00:51:03.346Z,0.00
2019-06-15T00:52:03.465Z,0.00
2019-06-15T00:53:03.316Z,0.00
2019-06-15T00:54:03.422Z,0.00
2019-06-15T00:55:03.283Z,0.00
2019-06-15T00:56:03.271Z,0.00
2019-06-15T00:57:03.256Z,0.00
2019-06-15T00:58:03.307Z,0.00
2019-06-15T00:59:03.226Z,0.00
2019-06-15T01:00:03.222Z,0.00
2019-06-15T01:01:03.201Z,0.00
2019-06-15T01:02:03.181Z,0.00
2019-06-15T01:03:03.163Z,0.00
2019-06-15T01:04:03.152Z,0.00
2019-06-15T01:05:03.129Z,0.00
2019-06-15T01:06:03.132Z,0.00
2019-06-15T01:07:03.109Z,0.00
2019-06-15T01:08:03.092Z,0.00
2019-06-15T01:09:03.205Z,0.00
2019-06-15T01:10:03.061Z,0.00
2019-06-15T01:11:03.046Z,0.00
2019-06-15T01:12:03.034Z,0.00
2019-06-15T01:13:03.014Z,0.00
2019-06-15T01:14:03.007Z,0.00
2019-06-15T01:15:02.988Z,0.00
2019-06-15T01:16:02.980Z,0.00
2019-06-15T01:17:02.960Z,0.00
2019-06-15T01:18:02.944Z,0.00
2019-06-15T01:19:02.944Z,0.00
2019-06-15T01:20:02.924Z,0.00
2019-06-15T01:21:02.900Z,0.00
2019-06-15T01:22:02.883Z,0.00
2019-06-15T01:23:02.875Z,0.00
2019-06-15T01:24:02.852Z,0.00
2019-06-15T01:25:05.827Z,0.00
2019-06-15T01:26:02.835Z,0.00
2019-06-15T01:27:02.806Z,0.00
2019-06-15T01:28:02.885Z,0.00
2019-06-15T01:29:02.781Z,0.00
2019-06-15T01:30:02.782Z,0.00
2019-06-15T01:31:02.749Z,0.00
2019-06-15T01:32:02.732Z,0.00
2019-06-15T01:33:02.719Z,0.00
2019-06-15T01:34:02.708Z,0.00
2019-06-15T01:35:02.687Z,0.00
2019-06-15T01:36:02.675Z,0.00
2019-06-15T01:37:02.657Z,0.00
2019-06-15T01:38:02.641Z,0.00
2019-06-15T01:39:02.626Z,0.00
2019-06-15T01:40:02.613Z,0.00
2019-06-15T01:41:02.600Z,0.00
2019-06-15T01:42:02.584Z,0.00
2019-06-15T01:43:02.573Z,0.00
2019-06-15T01:44:02.553Z,0.00
2019-06-15T01:45:02.541Z,0.00
2019-06-15T01:46:02.520Z,0.00
2019-06-15T01:47:02.514Z,0.00
2019-06-15T01:48:02.496Z,0.00
2019-06-15T01:49:02.479Z,0.00
2019-06-15T01:50:02.813Z,0.00
2019-06-15T01:51:02.451Z,0.00
2019-06-15T01:52:02.448Z,0.00
2019-06-15T01:53:02.420Z,0.00
2019-06-15T01:54:02.405Z,0.00
2019-06-15T01:55:02.388Z,0.00
2019-06-15T01:56:02.373Z,0.00
2019-06-15T01:57:02.360Z,0.00
2019-06-15T01:58:02.349Z,0.00
2019-06-15T01:59:02.331Z,0.00
2019-06-15T02:00:02.779Z,0.00
2019-06-15T02:01:02.300Z,0.00
2019-06-15T02:02:02.284Z,0.00
2019-06-15T02:03:02.285Z,0.00
2019-06-15T02:04:02.266Z,0.00
2019-06-15T02:05:02.247Z,0.00
2019-06-15T02:06:02.354Z,0.00
2019-06-15T02:07:02.213Z,0.00
2019-06-15T02:08:02.208Z,0.00
2019-06-15T02:09:02.200Z,0.00
2019-06-15T02:10:02.166Z,0.00
2019-06-15T02:11:02.169Z,0.00
2019-06-15T02:12:02.137Z,0.00
2019-06-15T02:13:02.126Z,0.00
2019-06-15T02:14:02.107Z,0.00
2019-06-15T02:15:02.103Z,0.00
2019-06-15T02:16:02.393Z,0.00
2019-06-15T02:17:02.064Z,0.00
2019-06-15T02:18:02.052Z,0.00
2019-06-15T02:19:02.040Z,0.00
2019-06-15T02:20:02.030Z,0.00
2019-06-15T02:21:02.004Z,0.00
2019-06-15T02:22:02.003Z,0.00
2019-06-15T02:23:01.974Z,0.00
2019-06-15T02:24:01.958Z,0.00
2019-06-15T02:25:01.947Z,0.00
2019-06-15T02:26:01.927Z,0.00
2019-06-15T02:27:01.917Z,0.00
2019-06-15T02:28:01.905Z,0.00
2019-06-15T02:29:01.886Z,0.00
2019-06-15T02:30:01.893Z,0.00
2019-06-15T02:31:01.860Z,0.00
2019-06-15T02:32:01.842Z,0.00
2019-06-15T02:33:01.828Z,0.00
2019-06-15T02:34:01.810Z,0.00
2019-06-15T02:35:01.815Z,0.00
2019-06-15T02:36:01.779Z,0.00
2019-06-15T02:37:01.769Z,0.00
2019-06-15T02:38:01.752Z,0.00
2019-06-15T02:39:01.747Z,0.00
2019-06-15T02:40:01.723Z,0.00
2019-06-15T02:41:01.709Z,0.00
2019-06-15T02:42:01.702Z,0.00
2019-06-15T02:43:01.689Z,0.00
2019-06-15T02:44:01.665Z,0.00
2019-06-15T02:45:01.661Z,0.00
2019-06-15T02:46:01.639Z,0.00
2019-06-15T02:47:01.619Z,0.00
2019-06-15T02:48:01.623Z,0.00
2019-06-15T02:49:01.598Z,0.00
2019-06-15T02:50:02.095Z,0.00
2019-06-15T02:51:01.558Z,0.00
2019-06-15T02:52:01.543Z,0.00
2019-06-15T02:53:01.523Z,0.00
2019-06-15T02:54:01.521Z,0.00
2019-06-15T02:55:01.496Z,0.00
2019-06-15T02:56:01.487Z,0.00
2019-06-15T02:57:01.468Z,0.00
2019-06-15T02:58:01.455Z,0.00
2019-06-15T02:59:01.437Z,0.00
2019-06-15T03:00:01.420Z,0.00
2019-06-15T03:01:01.410Z,0.00
2019-06-15T03:02:01.389Z,0.00
2019-06-15T03:03:01.395Z,0.00
2019-06-15T03:04:01.373Z,0.00
2019-06-15T03:05:01.349Z,0.00
2019-06-15T03:06:01.330Z,0.00
2019-06-15T03:07:01.310Z,0.00
2019-06-15T03:08:01.306Z,0.00
2019-06-15T03:09:01.320Z,0.00
2019-06-15T03:10:01.268Z,0.00
2019-06-15T03:11:01.251Z,0.00
2019-06-15T03:12:01.235Z,0.00
2019-06-15T03:13:01.220Z,0.00
2019-06-15T03:14:01.204Z,0.00
2019-06-15T03:15:01.192Z,0.00
2019-06-15T03:16:01.175Z,0.00
2019-06-15T03:17:01.193Z,0.00
2019-06-15T03:18:01.363Z,0.00
2019-06-15T03:19:01.132Z,0.00
2019-06-15T03:20:01.123Z,0.00
2019-06-15T03:21:01.099Z,0.00
2019-06-15T03:22:01.083Z,0.00
2019-06-15T03:23:01.070Z,0.00
2019-06-15T03:24:01.049Z,5.63
2019-06-15T03:25:01.039Z,5.63
2019-06-15T03:26:05.516Z,5.63
2019-06-15T03:27:01.010Z,5.63
2019-06-15T03:28:00.998Z,5.63
2019-06-15T03:29:00.982Z,5.63
2019-06-15T03:30:00.966Z,5.63
2019-06-15T03:31:00.951Z,5.63
2019-06-15T03:32:00.935Z,5.63
2019-06-15T03:33:00.913Z,5.63
2019-06-15T03:34:00.902Z,5.63
2019-06-15T03:35:00.896Z,11.25
2019-06-15T03:36:00.889Z,11.25
2019-06-15T03:37:00.856Z,11.25
2019-06-15T03:38:00.854Z,11.25
2019-06-15T03:39:00.834Z,11.25
2019-06-15T03:40:00.810Z,11.25
2019-06-15T03:41:00.796Z,11.25
2019-06-15T03:42:00.780Z,11.25
2019-06-15T03:43:00.765Z,11.25
2019-06-15T03:44:00.752Z,16.88
2019-06-15T03:45:00.734Z,16.88
2019-06-15T03:46:00.729Z,16.88
2019-06-15T03:47:00.702Z,16.88
2019-06-15T03:48:00.691Z,16.88
2019-06-15T03:49:00.668Z,16.88
2019-06-15T03:50:00.659Z,22.50
2019-06-15T03:51:00.643Z,22.50
2019-06-15T03:52:00.628Z,28.13
2019-06-15T03:53:00.613Z,28.13
2019-06-15T03:54:00.598Z,33.75
2019-06-15T03:55:00.590Z,39.38
2019-06-15T03:56:00.569Z,33.75
2019-06-15T03:57:00.555Z,39.38
2019-06-15T03:58:00.540Z,45.00
2019-06-15T03:59:00.523Z,50.63
2019-06-15T04:00:00.782Z,45.00
2019-06-15T04:01:00.498Z,45.00
2019-06-15T04:02:00.503Z,50.63
2019-06-15T04:03:00.463Z,50.63
2019-06-15T04:04:00.468Z,56.25
2019-06-15T04:05:00.492Z,56.25
2019-06-15T04:06:00.415Z,56.25
2019-06-15T04:07:00.404Z,56.25
2019-06-15T04:08:00.394Z,56.25
2019-06-15T04:09:00.376Z,56.25
2019-06-15T04:10:00.359Z,56.25
2019-06-15T04:11:00.344Z,56.25
2019-06-15T04:12:00.355Z,50.63
2019-06-15T04:13:00.316Z,45.00
2019-06-15T04:14:00.304Z,45.00
2019-06-15T04:15:00.288Z,50.63
2019-06-15T04:16:00.283Z,50.63
2019-06-15T04:17:00.257Z,39.38
2019-06-15T04:18:00.240Z,33.75
2019-06-15T04:19:00.228Z,33.75
2019-06-15T04:20:00.234Z,28.13
2019-06-15T04:21:00.202Z,28.13
2019-06-15T04:22:00.186Z,28.13
2019-06-15T04:23:00.173Z,28.13
2019-06-15T04:24:00.163Z,28.13
2019-06-15T04:25:00.145Z,28.13
2019-06-15T04:26:00.132Z,28.13
2019-06-15T04:27:00.122Z,28.13
2019-06-15T04:28:00.104Z,28.13
2019-06-15T04:29:00.091Z,33.75
2019-06-15T04:30:00.081Z,39.38
2019-06-15T04:31:00.076Z,45.00
2019-06-15T04:32:00.047Z,50.63
2019-06-15T04:33:00.036Z,50.63
2019-06-15T04:34:00.040Z,45.00
2019-06-15T04:35:00.030Z,45.00
2019-06-15T04:35:59.990Z,56.25
2019-06-15T04:36:59.995Z,61.88
2019-06-15T04:37:59.959Z,61.88
2019-06-15T04:38:59.949Z,61.88
2019-06-15T04:39:59.935Z,56.25
2019-06-15T04:41:01.686Z,67.50
2019-06-15T04:41:59.907Z,61.88
2019-06-15T04:42:59.892Z,67.50
2019-06-15T04:43:59.880Z,61.88
2019-06-15T04:44:59.862Z,78.75
2019-06-15T04:45:59.849Z,61.88
2019-06-15T04:46:59.861Z,67.50
2019-06-15T04:47:59.827Z,56.25
2019-06-15T04:48:59.812Z,50.63
2019-06-15T04:49:59.792Z,45.00
2019-06-15T04:50:59.780Z,50.63
2019-06-15T04:51:59.767Z,50.63
2019-06-15T04:52:59.749Z,39.38
2019-06-15T04:53:59.744Z,33.75
2019-06-15T04:54:59.734Z,39.38
2019-06-15T04:55:59.711Z,39.38
2019-06-15T04:56:59.706Z,39.38
2019-06-15T04:57:59.686Z,39.38
2019-06-15T04:58:59.675Z,45.00
2019-06-15T04:59:59.660Z,45.00
2019-06-15T05:00:59.644Z,45.00
2019-06-15T05:01:59.632Z,56.25
2019-06-15T05:02:59.620Z,61.88
2019-06-15T05:03:59.604Z,56.25
2019-06-15T05:04:59.591Z,50.63
2019-06-15T05:05:59.575Z,61.88
2019-06-15T05:06:59.564Z,61.88
2019-06-15T05:07:59.549Z,73.13
2019-06-15T05:08:59.535Z,78.75
2019-06-15T05:09:59.522Z,78.75
2019-06-15T05:11:01.690Z,73.13
2019-06-15T05:11:59.496Z,67.50
2019-06-15T05:12:59.478Z,61.88
2019-06-15T05:13:59.467Z,61.88
2019-06-15T05:14:59.455Z,56.25
2019-06-15T05:15:59.453Z,61.88
2019-06-15T05:16:59.434Z,61.88
2019-06-15T05:17:59.416Z,61.88
2019-06-15T05:18:59.400Z,61.88
2019-06-15T05:19:59.391Z,61.88
2019-06-15T05:20:59.378Z,67.50
2019-06-15T05:21:59.374Z,73.13
2019-06-15T05:22:59.351Z,73.13
2019-06-15T05:23:59.337Z,73.13
2019-06-15T05:24:59.329Z,73.13
2019-06-15T05:25:59.307Z,73.13
2019-06-15T05:27:06.461Z,73.13
2019-06-15T05:27:59.285Z,73.13
2019-06-15T05:28:59.275Z,73.13
2019-06-15T05:29:59.263Z,73.13
2019-06-15T05:30:59.248Z,78.75
2019-06-15T05:31:59.231Z,90.00
2019-06-15T05:32:59.226Z,101.25
2019-06-15T05:33:59.209Z,101.25
2019-06-15T05:34:59.208Z,101.25
2019-06-15T05:35:59.188Z,95.63
2019-06-15T05:36:59.183Z,90.00
2019-06-15T05:37:59.168Z,84.38
2019-06-15T05:38:59.145Z,84.38
2019-06-15T05:39:59.133Z,84.38
2019-06-15T05:40:59.119Z,78.75
2019-06-15T05:41:59.113Z,78.75
2019-06-15T05:42:59.089Z,101.25
2019-06-15T05:43:59.079Z,112.50
2019-06-15T05:44:59.063Z,112.50
2019-06-15T05:45:59.063Z,163.13
2019-06-15T05:46:59.039Z,163.13
2019-06-15T05:47:59.027Z,151.88
2019-06-15T05:48:59.015Z,151.88
2019-06-15T05:49:58.997Z,185.63
2019-06-15T05:50:58.987Z,624.38
2019-06-15T05:51:58.976Z,658.13
2019-06-15T05:52:58.965Z,450.00
2019-06-15T05:53:58.952Z,601.88
2019-06-15T05:54:58.954Z,635.63
2019-06-15T05:55:58.927Z,635.63
2019-06-15T05:56:58.930Z,630.00
2019-06-15T05:57:58.908Z,630.00
2019-06-15T05:58:58.895Z,646.88
2019-06-15T05:59:58.892Z,646.88
2019-06-15T06:00:58.882Z,630.00
2019-06-15T06:01:58.869Z,646.88
2019-06-15T06:02:58.864Z,658.13
2019-06-15T06:03:58.860Z,669.38
2019-06-15T06:04:58.836Z,691.88
2019-06-15T06:05:58.842Z,663.75
2019-06-15T06:06:58.832Z,416.25
2019-06-15T06:07:58.821Z,371.25
2019-06-15T06:08:58.814Z,517.50
2019-06-15T06:09:58.811Z,343.13
2019-06-15T06:10:58.800Z,320.63
2019-06-15T06:11:58.797Z,309.38
2019-06-15T06:12:58.787Z,275.63
2019-06-15T06:13:58.779Z,275.63
2019-06-15T06:14:58.775Z,298.13
2019-06-15T06:15:58.763Z,247.50
2019-06-15T06:16:58.757Z,270.00
2019-06-15T06:17:58.753Z,258.75
2019-06-15T06:18:58.738Z,292.50
2019-06-15T06:19:58.730Z,270.00
2019-06-15T06:20:58.723Z,230.63
2019-06-15T06:21:58.716Z,219.38
2019-06-15T06:22:58.705Z,202.50
2019-06-15T06:23:58.701Z,202.50
2019-06-15T06:24:58.697Z,202.50
2019-06-15T06:25:58.678Z,202.50
2019-06-15T06:26:58.670Z,208.13
2019-06-15T06:27:58.683Z,213.75
2019-06-15T06:28:58.654Z,219.38
2019-06-15T06:29:58.639Z,213.75
2019-06-15T06:30:58.657Z,213.75
2019-06-15T06:31:58.624Z,208.13
2019-06-15T06:32:58.619Z,208.13
2019-06-15T06:33:58.608Z,213.75
2019-06-15T06:34:58.599Z,230.63
2019-06-15T06:35:58.589Z,230.63
2019-06-15T06:36:58.584Z,241.88
2019-06-15T06:37:58.579Z,253.13
2019-06-15T06:38:58.559Z,275.63
2019-06-15T06:39:58.549Z,292.50
2019-06-15T06:40:58.542Z,275.63
2019-06-15T06:41:58.531Z,292.50
2019-06-15T06:42:58.521Z,354.38
2019-06-15T06:43:58.511Z,405.00
2019-06-15T06:44:58.504Z,348.75
2019-06-15T06:45:58.493Z,331.88
2019-06-15T06:46:58.485Z,399.38
2019-06-15T06:47:58.489Z,382.50
2019-06-15T06:48:58.465Z,337.50
2019-06-15T06:49:58.457Z,365.63
2019-06-15T06:50:58.452Z,309.38
2019-06-15T06:51:58.436Z,376.88
2019-06-15T06:52:58.433Z,331.88
2019-06-15T06:53:58.423Z,405.00
2019-06-15T06:54:58.418Z,450.00
2019-06-15T06:55:58.406Z,466.88
2019-06-15T06:56:58.405Z,309.38
2019-06-15T06:57:58.390Z,292.50
2019-06-15T06:58:58.382Z,309.38
2019-06-15T06:59:58.378Z,405.00
2019-06-15T07:00:58.367Z,320.63
2019-06-15T07:01:58.365Z,309.38
2019-06-15T07:02:58.346Z,298.13
2019-06-15T07:03:58.347Z,331.88
2019-06-15T07:04:58.344Z,303.75
2019-06-15T07:05:58.329Z,320.63
2019-06-15T07:06:58.320Z,455.63
2019-06-15T07:07:58.318Z,450.00
2019-06-15T07:08:58.306Z,376.88
2019-06-15T07:09:58.312Z,472.50
2019-06-15T07:10:58.295Z,421.88
2019-06-15T07:11:58.284Z,309.38
2019-06-15T07:12:58.279Z,466.88
2019-06-15T07:13:58.280Z,382.50
2019-06-15T07:14:58.273Z,511.88
2019-06-15T07:15:58.267Z,450.00
2019-06-15T07:16:58.257Z,399.38
2019-06-15T07:17:58.260Z,337.50
2019-06-15T07:18:58.248Z,461.25
2019-06-15T07:19:58.244Z,483.75
2019-06-15T07:20:58.240Z,236.25
2019-06-15T07:21:58.234Z,253.13
2019-06-15T07:22:58.231Z,309.38
2019-06-15T07:23:58.227Z,253.13
2019-06-15T07:24:58.220Z,281.25
2019-06-15T07:25:58.214Z,253.13
2019-06-15T07:26:58.209Z,438.75
2019-06-15T07:28:07.703Z,478.13
2019-06-15T07:28:58.201Z,472.50
2019-06-15T07:29:58.200Z,489.38
2019-06-15T07:30:58.189Z,523.13
2019-06-15T07:31:58.185Z,472.50
2019-06-15T07:32:58.181Z,478.13
2019-06-15T07:33:58.192Z,433.13
2019-06-15T07:34:58.175Z,461.25
2019-06-15T07:35:58.171Z,433.13
2019-06-15T07:37:01.462Z,438.75
2019-06-15T07:37:58.156Z,399.38
2019-06-15T07:38:58.153Z,427.50
2019-06-15T07:39:58.151Z,410.63
2019-06-15T07:40:58.151Z,348.75
2019-06-15T07:41:58.146Z,354.38
2019-06-15T07:42:58.140Z,354.38
2019-06-15T07:43:58.134Z,354.38
2019-06-15T07:44:58.156Z,376.88
2019-06-15T07:45:58.126Z,371.25
2019-06-15T07:46:58.126Z,343.13
2019-06-15T07:47:58.114Z,281.25
2019-06-15T07:48:58.124Z,303.75
2019-06-15T07:49:58.105Z,286.88
2019-06-15T07:50:58.099Z,253.13
2019-06-15T07:51:58.091Z,393.75
2019-06-15T07:52:58.090Z,416.25
2019-06-15T07:53:58.094Z,405.00
2019-06-15T07:54:58.075Z,292.50
2019-06-15T07:55:58.077Z,281.25
2019-06-15T07:56:58.068Z,315.00
2019-06-15T07:57:58.058Z,354.38
2019-06-15T07:58:58.055Z,393.75
2019-06-15T07:59:58.053Z,298.13
2019-06-15T08:00:58.045Z,388.13
2019-06-15T08:01:58.045Z,365.63
2019-06-15T08:02:58.033Z,388.13
2019-06-15T08:03:58.022Z,410.63
2019-06-15T08:04:58.023Z,416.25
2019-06-15T08:05:58.020Z,421.88
2019-06-15T08:06:58.012Z,360.00
2019-06-15T08:07:58.008Z,438.75
2019-06-15T08:08:58.009Z,331.88
2019-06-15T08:09:57.998Z,292.50
2019-06-15T08:10:57.996Z,275.63
2019-06-15T08:11:58.012Z,298.13
2019-06-15T08:12:57.986Z,281.25
2019-06-15T08:13:57.989Z,315.00
2019-06-15T08:14:57.985Z,393.75
2019-06-15T08:15:57.974Z,354.38
2019-06-15T08:16:57.972Z,376.88
2019-06-15T08:17:57.967Z,376.88
2019-06-15T08:18:57.969Z,410.63
2019-06-15T08:19:57.968Z,331.88
2019-06-15T08:20:57.960Z,326.25
2019-06-15T08:21:57.952Z,281.25
2019-06-15T08:22:57.948Z,258.75
2019-06-15T08:23:57.943Z,270.00
2019-06-15T08:24:57.943Z,286.88
2019-06-15T08:25:57.939Z,343.13
2019-06-15T08:26:57.931Z,303.75
2019-06-15T08:27:57.938Z,292.50
2019-06-15T08:28:57.915Z,326.25
2019-06-15T08:29:57.914Z,309.38
2019-06-15T08:30:57.914Z,343.13
2019-06-15T08:31:57.900Z,303.75
2019-06-15T08:32:57.899Z,326.25
2019-06-15T08:33:57.895Z,326.25
2019-06-15T08:34:57.927Z,427.50
2019-06-15T08:35:57.898Z,365.63
2019-06-15T08:36:57.871Z,376.88
2019-06-15T08:37:57.866Z,360.00
2019-06-15T08:38:57.882Z,376.88
2019-06-15T08:39:57.992Z,360.00
2019-06-15T08:40:57.852Z,416.25
2019-06-15T08:41:57.852Z,388.13
2019-06-15T08:42:57.864Z,298.13
2019-06-15T08:43:57.844Z,382.50
2019-06-15T08:44:57.835Z,326.25
2019-06-15T08:45:57.849Z,376.88
2019-06-15T08:46:59.459Z,309.38
2019-06-15T08:47:57.834Z,264.38
2019-06-15T08:48:57.836Z,241.88
2019-06-15T08:49:57.877Z,281.25
2019-06-15T08:50:57.831Z,309.38
2019-06-15T08:51:57.828Z,253.13
2019-06-15T08:52:57.824Z,191.25
2019-06-15T08:53:57.824Z,168.75
2019-06-15T08:54:57.853Z,151.88
2019-06-15T08:55:57.822Z,135.00
2019-06-15T08:56:57.817Z,112.50
2019-06-15T08:57:57.810Z,101.25
2019-06-15T08:58:57.805Z,101.25
2019-06-15T08:59:57.802Z,101.25
2019-06-15T09:00:57.796Z,101.25
2019-06-15T09:01:57.793Z,112.50
2019-06-15T09:02:57.807Z,140.63
2019-06-15T09:03:57.782Z,157.50
2019-06-15T09:04:57.782Z,168.75
2019-06-15T09:05:57.782Z,196.88
2019-06-15T09:06:57.778Z,196.88
2019-06-15T09:07:57.775Z,185.63
2019-06-15T09:08:57.756Z,185.63
2019-06-15T09:09:57.767Z,174.38
2019-06-15T09:10:57.774Z,163.13
2019-06-15T09:11:57.738Z,191.25
2019-06-15T09:12:57.745Z,225.00
2019-06-15T09:13:57.726Z,247.50
2019-06-15T09:14:57.718Z,247.50
2019-06-15T09:15:57.712Z,180.00
2019-06-15T09:16:57.705Z,135.00
2019-06-15T09:17:57.699Z,135.00
2019-06-15T09:18:57.774Z,146.25
2019-06-15T09:19:57.691Z,151.88
2019-06-15T09:20:57.684Z,151.88
2019-06-15T09:21:57.672Z,157.50
2019-06-15T09:22:57.676Z,140.63
2019-06-15T09:23:57.659Z,118.13
2019-06-15T09:24:57.654Z,112.50
2019-06-15T09:25:57.643Z,106.88
2019-06-15T09:26:57.636Z,135.00
2019-06-15T09:27:57.634Z,202.50
2019-06-15T09:29:10.333Z,241.88
2019-06-15T09:29:57.614Z,275.63
2019-06-15T09:30:57.612Z,258.75
2019-06-15T09:31:57.629Z,253.13
2019-06-15T09:32:57.596Z,286.88
2019-06-15T09:33:57.586Z,303.75
2019-06-15T09:34:57.584Z,275.63
2019-06-15T09:35:57.575Z,236.25
2019-06-15T09:36:57.572Z,208.13
2019-06-15T09:37:57.562Z,196.88
2019-06-15T09:38:57.556Z,213.75
2019-06-15T09:39:57.547Z,225.00
2019-06-15T09:40:57.543Z,258.75
2019-06-15T09:41:57.535Z,275.63
2019-06-15T09:42:57.536Z,281.25
2019-06-15T09:43:57.524Z,315.00
2019-06-15T09:44:57.517Z,354.38
2019-06-15T09:45:57.512Z,360.00
2019-06-15T09:46:57.504Z,365.63
2019-06-15T09:47:57.502Z,360.00
2019-06-15T09:48:57.497Z,399.38
2019-06-15T09:49:57.493Z,331.88
2019-06-15T09:50:57.484Z,393.75
2019-06-15T09:51:57.496Z,388.13
2019-06-15T09:52:57.495Z,360.00
2019-06-15T09:53:57.473Z,360.00
2019-06-15T09:54:57.466Z,365.63
2019-06-15T09:55:57.461Z,382.50
2019-06-15T09:56:57.461Z,427.50
2019-06-15T09:57:57.457Z,382.50
2019-06-15T09:58:57.454Z,382.50
2019-06-15T09:59:57.453Z,360.00
2019-06-15T10:00:57.447Z,371.25
2019-06-15T10:01:57.450Z,360.00
2019-06-15T10:02:57.451Z,354.38
2019-06-15T10:03:57.443Z,360.00
2019-06-15T10:04:57.438Z,382.50
2019-06-15T10:05:57.433Z,343.13
2019-06-15T10:06:57.431Z,281.25
2019-06-15T10:07:57.440Z,253.13
2019-06-15T10:08:57.432Z,275.63
2019-06-15T10:09:57.441Z,281.25
2019-06-15T10:10:57.418Z,275.63
2019-06-15T10:11:57.417Z,315.00
2019-06-15T10:12:57.415Z,326.25
2019-06-15T10:13:57.410Z,303.75
2019-06-15T10:14:57.407Z,286.88
2019-06-15T10:15:57.404Z,281.25
2019-06-15T10:16:57.421Z,286.88
2019-06-15T10:17:57.394Z,281.25
2019-06-15T10:18:57.416Z,281.25
2019-06-15T10:19:57.385Z,264.38
2019-06-15T10:20:57.378Z,247.50
2019-06-15T10:21:57.436Z,303.75
2019-06-15T10:22:57.379Z,286.88
2019-06-15T10:23:57.368Z,292.50
2019-06-15T10:24:57.364Z,298.13
2019-06-15T10:25:57.358Z,360.00
2019-06-15T10:26:57.355Z,309.38
2019-06-15T10:27:57.355Z,286.88
2019-06-15T10:28:57.344Z,298.13
2019-06-15T10:29:57.340Z,348.75
2019-06-15T10:31:00.661Z,388.13
2019-06-15T10:31:57.336Z,427.50
2019-06-15T10:32:57.329Z,354.38
2019-06-15T10:33:57.319Z,348.75
2019-06-15T10:34:57.320Z,382.50
2019-06-15T10:35:57.320Z,421.88
2019-06-15T10:36:57.329Z,354.38
2019-06-15T10:37:57.316Z,331.88
2019-06-15T10:38:57.316Z,337.50
2019-06-15T10:39:57.315Z,309.38
2019-06-15T10:40:57.307Z,281.25
2019-06-15T10:41:57.312Z,275.63
2019-06-15T10:42:57.310Z,264.38
2019-06-15T10:43:57.311Z,247.50
2019-06-15T10:44:57.319Z,264.38
2019-06-15T10:45:57.312Z,241.88
2019-06-15T10:46:57.306Z,208.13
2019-06-15T10:47:57.336Z,225.00
2019-06-15T10:48:57.307Z,213.75
2019-06-15T10:49:57.301Z,219.38
2019-06-15T10:50:57.319Z,236.25
2019-06-15T10:51:57.294Z,247.50
2019-06-15T10:52:57.292Z,236.25
2019-06-15T10:53:59.848Z,225.00
2019-06-15T10:54:57.285Z,230.63
2019-06-15T10:55:57.283Z,258.75
2019-06-15T10:56:57.277Z,303.75
2019-06-15T10:57:57.276Z,258.75
2019-06-15T10:58:57.272Z,264.38
2019-06-15T10:59:57.961Z,281.25
2019-06-15T11:00:57.283Z,298.13
2019-06-15T11:01:57.263Z,298.13
2019-06-15T11:02:57.260Z,303.75
2019-06-15T11:03:57.274Z,320.63
2019-06-15T11:04:57.251Z,292.50
2019-06-15T11:05:57.249Z,281.25
2019-06-15T11:06:57.246Z,264.38
2019-06-15T11:07:57.237Z,253.13
2019-06-15T11:08:57.235Z,264.38
2019-06-15T11:09:57.235Z,270.00
2019-06-15T11:10:57.230Z,241.88
2019-06-15T11:11:57.223Z,219.38
2019-06-15T11:12:57.223Z,247.50
2019-06-15T11:13:57.213Z,281.25
2019-06-15T11:14:57.210Z,275.63
2019-06-15T11:15:57.208Z,281.25
2019-06-15T11:16:57.207Z,292.50
2019-06-15T11:17:57.194Z,264.38
2019-06-15T11:18:57.193Z,241.88
2019-06-15T11:19:57.190Z,253.13
2019-06-15T11:20:58.980Z,241.88
2019-06-15T11:21:57.185Z,258.75
2019-06-15T11:22:57.178Z,275.63
2019-06-15T11:23:57.175Z,292.50
2019-06-15T11:24:57.170Z,286.88
2019-06-15T11:25:57.165Z,270.00
2019-06-15T11:26:57.162Z,258.75
2019-06-15T11:27:57.171Z,253.13
2019-06-15T11:28:57.158Z,253.13
2019-06-15T11:30:10.026Z,264.38
2019-06-15T11:30:57.180Z,286.88
2019-06-15T11:31:57.143Z,315.00
2019-06-15T11:32:57.138Z,331.88
2019-06-15T11:33:57.133Z,326.25
2019-06-15T11:34:57.142Z,320.63
2019-06-15T11:35:57.127Z,315.00
2019-06-15T11:36:57.129Z,309.38
2019-06-15T11:37:57.122Z,298.13
2019-06-15T11:38:57.119Z,286.88
2019-06-15T11:39:57.115Z,264.38
2019-06-15T11:40:57.121Z,253.13
2019-06-15T11:41:57.111Z,236.25
2019-06-15T11:42:57.107Z,236.25
2019-06-15T11:43:57.100Z,230.63
2019-06-15T11:44:57.106Z,241.88
2019-06-15T11:45:57.101Z,241.88
2019-06-15T11:46:57.093Z,236.25
2019-06-15T11:47:57.088Z,236.25
2019-06-15T11:48:57.085Z,230.63
2019-06-15T11:49:57.077Z,230.63
2019-06-15T11:50:57.076Z,236.25
2019-06-15T11:51:57.070Z,236.25
2019-06-15T11:52:57.088Z,236.25
2019-06-15T11:53:57.060Z,247.50
2019-06-15T11:54:57.057Z,241.88
2019-06-15T11:55:57.053Z,241.88
2019-06-15T11:56:57.050Z,241.88
2019-06-15T11:57:57.054Z,241.88
2019-06-15T11:58:57.036Z,241.88
2019-06-15T11:59:57.031Z,241.88
2019-06-15T12:00:57.032Z,241.88
2019-06-15T12:01:57.025Z,241.88
2019-06-15T12:02:57.013Z,247.50
2019-06-15T12:03:57.011Z,270.00
2019-06-15T12:04:58.745Z,292.50
2019-06-15T12:05:57.000Z,303.75
2019-06-15T12:06:56.995Z,309.38
2019-06-15T12:07:56.988Z,309.38
2019-06-15T12:08:56.984Z,309.38
2019-06-15T12:09:56.977Z,376.88
2019-06-15T12:10:56.973Z,331.88
2019-06-15T12:11:56.981Z,315.00
2019-06-15T12:12:56.966Z,286.88
2019-06-15T12:13:56.984Z,247.50
2019-06-15T12:14:56.954Z,219.38
2019-06-15T12:15:56.948Z,202.50
2019-06-15T12:16:56.945Z,191.25
2019-06-15T12:17:56.939Z,191.25
2019-06-15T12:18:56.942Z,196.88
2019-06-15T12:19:56.931Z,196.88
2019-06-15T12:20:56.928Z,191.25
2019-06-15T12:21:56.922Z,185.63
2019-06-15T12:22:56.911Z,191.25
2019-06-15T12:23:56.916Z,213.75
2019-06-15T12:24:56.925Z,219.38
2019-06-15T12:25:56.902Z,225.00
2019-06-15T12:26:56.894Z,241.88
2019-06-15T12:27:56.884Z,258.75
2019-06-15T12:28:56.884Z,264.38
2019-06-15T12:29:56.880Z,264.38
2019-06-15T12:30:56.891Z,264.38
2019-06-15T12:31:56.870Z,281.25
2019-06-15T12:32:56.862Z,331.88
2019-06-15T12:33:56.859Z,320.63
2019-06-15T12:34:56.853Z,303.75
2019-06-15T12:35:56.861Z,298.13
2019-06-15T12:36:56.846Z,286.88
2019-06-15T12:37:56.841Z,309.38
2019-06-15T12:38:56.857Z,365.63
2019-06-15T12:39:56.831Z,303.75
2019-06-15T12:40:56.831Z,331.88
2019-06-15T12:41:56.819Z,270.00
2019-06-15T12:42:56.821Z,275.63
2019-06-15T12:43:56.815Z,298.13
2019-06-15T12:44:56.813Z,286.88